createdAt,value
2023-03-22T00:02:16.771Z,5.78
2023-03-22T00:04:45.419Z,5.72
2023-03-22T00:07:13.617Z,5.66
2023-03-22T00:09:41.781Z,5.32
2023-03-22T00:12:10.360Z,5.50
2023-03-22T00:14:38.539Z,5.97
2023-03-22T00:17:06.701Z,6.02
2023-03-22T00:19:35.182Z,5.94
2023-03-22T00:22:03.949Z,5.92
2023-03-22T00:24:32.196Z,5.54
2023-03-22T00:27:01.283Z,5.44
2023-03-22T00:29:29.982Z,5.32
2023-03-22T00:31:58.170Z,5.22
2023-03-22T00:34:27.398Z,5.03
2023-03-22T00:36:56.573Z,4.86
2023-03-22T00:39:24.994Z,4.85
2023-03-22T00:41:53.675Z,4.77
2023-03-22T00:44:21.762Z,4.35
2023-03-22T00:46:50.189Z,4.39
2023-03-22T00:49:19.259Z,4.41
2023-03-22T00:51:47.598Z,4.53
2023-03-22T00:54:17.351Z,4.36
2023-03-22T00:56:46.207Z,4.31
2023-03-22T00:59:14.752Z,4.58
2023-03-22T01:01:43.782Z,4.33
2023-03-22T01:04:18.363Z,4.26
2023-03-22T01:06:47.457Z,3.91
2023-03-22T01:09:16.113Z,4.32
2023-03-22T01:11:45.613Z,4.31
2023-03-22T01:14:14.190Z,5.15
2023-03-22T01:16:42.991Z,5.39
2023-03-22T01:19:11.316Z,6.53
2023-03-22T01:21:39.574Z,5.94
2023-03-22T01:24:08.496Z,6.85
2023-03-22T01:26:36.714Z,6.95
2023-03-22T01:29:05.872Z,7.24
2023-03-22T01:31:34.564Z,7.45
2023-03-22T01:34:03.237Z,7.86
2023-03-22T01:36:31.628Z,8.23
2023-03-22T01:39:00.699Z,8.05
2023-03-22T01:41:29.198Z,7.98
2023-03-22T01:44:19.369Z,8.23
2023-03-22T01:46:49.938Z,7.47
2023-03-22T01:49:21.922Z,7.28
2023-03-22T01:51:52.348Z,6.84
2023-03-22T01:54:36.545Z,6.37
2023-03-22T01:57:06.722Z,6.37
2023-03-22T01:59:35.987Z,6.15
2023-03-22T02:02:04.890Z,6.32
2023-03-22T02:04:35.612Z,5.91
2023-03-22T02:07:09.989Z,5.84
2023-03-22T02:09:41.692Z,5.24
2023-03-22T02:12:31.406Z,5.02
2023-03-22T02:15:20.357Z,4.74
2023-03-22T02:18:19.847Z,4.68
2023-03-22T02:21:11.098Z,4.80
2023-03-22T02:23:47.868Z,4.53
2023-03-22T02:26:39.625Z,4.47
2023-03-22T02:29:16.535Z,4.48
2023-03-22T02:32:10.130Z,4.21
2023-03-22T02:35:01.259Z,3.77
2023-03-22T02:37:35.984Z,3.99
2023-03-22T02:40:16.847Z,4.11
2023-03-22T02:42:56.028Z,4.33
2023-03-22T02:45:38.307Z,4.22
2023-03-22T02:48:25.157Z,4.48
2023-03-22T02:50:56.057Z,4.26
2023-03-22T02:53:29.195Z,4.44
2023-03-22T02:56:03.636Z,4.96
2023-03-22T02:58:39.670Z,4.92
2023-03-22T03:01:09.890Z,5.89
2023-03-22T03:03:39.903Z,6.44
2023-03-22T03:06:11.209Z,6.86
2023-03-22T03:08:41.153Z,6.82
2023-03-22T03:11:10.476Z,6.88
2023-03-22T03:13:38.867Z,7.40
2023-03-22T03:16:08.205Z,7.62
2023-03-22T03:18:41.902Z,7.95
2023-03-22T03:21:30.394Z,7.97
2023-03-22T03:24:07.697Z,8.11
2023-03-22T03:26:47.608Z,8.26
2023-03-22T03:29:37.885Z,7.70
2023-03-22T03:32:38.416Z,6.94
2023-03-22T03:35:22.708Z,6.79
2023-03-22T03:38:22.128Z,6.47
2023-03-22T03:40:54.115Z,6.77
2023-03-22T03:43:23.370Z,6.88
2023-03-22T03:45:52.609Z,6.83
2023-03-22T03:48:23.723Z,7.12
2023-03-22T03:50:53.402Z,6.73
2023-03-22T03:53:21.736Z,6.69
2023-03-22T03:55:50.109Z,6.66
2023-03-22T03:58:18.837Z,7.45
2023-03-22T04:00:47.647Z,8.04
2023-03-22T04:03:17.532Z,7.68
2023-03-22T04:05:46.912Z,7.52
2023-03-22T04:08:15.197Z,7.53
2023-03-22T04:10:44.398Z,7.26
2023-03-22T04:13:12.665Z,7.66
2023-03-22T04:15:41.421Z,7.74
2023-03-22T04:18:12.780Z,7.43
2023-03-22T04:20:42.121Z,7.11
2023-03-22T04:23:11.301Z,7.36
2023-03-22T04:25:40.007Z,7.90
2023-03-22T04:28:09.958Z,7.12
2023-03-22T04:30:39.311Z,6.93
2023-03-22T04:33:09.239Z,6.71
2023-03-22T04:35:38.607Z,6.54
2023-03-22T04:38:08.256Z,6.57
2023-03-22T04:40:39.141Z,6.65
2023-03-22T04:43:11.270Z,6.28
2023-03-22T04:45:42.405Z,6.30
2023-03-22T04:48:11.643Z,5.71
2023-03-22T04:50:40.645Z,6.32
2023-03-22T04:53:10.124Z,6.30
2023-03-22T04:55:39.600Z,6.04
2023-03-22T04:58:08.128Z,5.83
2023-03-22T05:00:37.881Z,6.63
2023-03-22T05:03:06.970Z,6.91
2023-03-22T05:05:36.630Z,6.39
2023-03-22T05:08:04.908Z,6.02
2023-03-22T05:10:33.503Z,5.62
2023-03-22T05:13:01.808Z,6.26
2023-03-22T05:15:32.673Z,6.53
2023-03-22T05:18:01.797Z,6.37
2023-03-22T05:20:29.957Z,6.30
2023-03-22T05:22:59.222Z,6.21
2023-03-22T05:25:27.891Z,6.57
2023-03-22T05:28:01.739Z,7.33
2023-03-22T05:30:32.491Z,7.62
2023-03-22T05:33:04.056Z,9.21
2023-03-22T05:35:34.539Z,9.88
2023-03-22T05:38:03.730Z,8.80
2023-03-22T05:40:33.527Z,8.58
2023-03-22T05:43:02.624Z,8.92
2023-03-22T05:45:32.769Z,9.21
2023-03-22T05:48:03.946Z,8.95
2023-03-22T05:50:32.814Z,9.15
2023-03-22T05:53:01.336Z,8.77
2023-03-22T05:55:32.318Z,8.86
2023-03-22T05:58:01.990Z,9.13
2023-03-22T06:00:32.299Z,9.17
2023-03-22T06:03:04.041Z,9.02
2023-03-22T06:05:33.498Z,9.59
2023-03-22T06:08:02.227Z,9.76
2023-03-22T06:10:30.879Z,9.97
2023-03-22T06:12:59.181Z,10.13
2023-03-22T06:15:28.155Z,10.27
2023-03-22T06:17:57.185Z,10.34
2023-03-22T06:20:27.902Z,10.43
2023-03-22T06:22:56.895Z,10.51
2023-03-22T06:25:25.313Z,10.81
2023-03-22T06:27:53.747Z,11.02
2023-03-22T06:30:22.740Z,11.00
2023-03-22T06:32:56.900Z,11.14
2023-03-22T06:35:25.657Z,11.41
2023-03-22T06:37:53.901Z,11.38
2023-03-22T06:40:22.097Z,11.19
2023-03-22T06:42:52.126Z,11.52
2023-03-22T06:45:21.886Z,11.66
2023-03-22T06:47:51.030Z,12.00
2023-03-22T06:50:23.851Z,11.88
2023-03-22T06:52:53.303Z,11.95
2023-03-22T06:55:21.662Z,11.87
2023-03-22T06:57:50.477Z,12.13
2023-03-22T07:00:19.370Z,12.51
2023-03-22T07:02:47.611Z,13.37
2023-03-22T07:05:17.640Z,13.43
2023-03-22T07:07:46.716Z,13.67
2023-03-22T07:10:14.956Z,13.58
2023-03-22T07:12:44.499Z,13.69
2023-03-22T07:15:17.721Z,13.58
2023-03-22T07:17:47.437Z,13.27
2023-03-22T07:20:16.414Z,12.96
2023-03-22T07:22:45.191Z,13.20
2023-03-22T07:25:13.819Z,12.99
2023-03-22T07:27:42.667Z,13.19
2023-03-22T07:30:11.676Z,13.20
2023-03-22T07:32:42.974Z,13.45
2023-03-22T07:35:11.990Z,13.16
2023-03-22T07:37:43.019Z,13.36
2023-03-22T07:40:13.030Z,13.99
2023-03-22T07:42:43.036Z,13.18
2023-03-22T07:45:13.303Z,14.13
2023-03-22T07:47:48.004Z,14.02
2023-03-22T07:50:19.714Z,13.76
2023-03-22T07:52:49.991Z,13.98
2023-03-22T07:55:19.982Z,13.27
2023-03-22T07:57:48.391Z,13.30
2023-03-22T08:00:19.010Z,13.28
2023-03-22T08:02:48.128Z,13.72
2023-03-22T08:05:17.316Z,13.71
2023-03-22T08:07:46.600Z,13.78
2023-03-22T08:10:16.377Z,14.25
2023-03-22T08:12:44.901Z,13.85
2023-03-22T08:15:13.689Z,14.07
2023-03-22T08:17:42.343Z,14.10
2023-03-22T08:20:13.190Z,14.33
2023-03-22T08:22:46.133Z,14.59
2023-03-22T08:25:18.173Z,14.46
2023-03-22T08:27:46.985Z,14.26
2023-03-22T08:30:15.647Z,15.00
2023-03-22T08:32:44.297Z,15.11
2023-03-22T08:35:13.019Z,15.30
2023-03-22T08:37:41.857Z,15.51
2023-03-22T08:40:11.849Z,14.93
2023-03-22T08:42:41.731Z,14.90
2023-03-22T08:45:10.625Z,14.80
2023-03-22T08:47:42.015Z,14.45
2023-03-22T08:50:12.204Z,14.43
2023-03-22T08:52:50.351Z,14.68
2023-03-22T08:55:20.706Z,14.14
2023-03-22T08:57:52.080Z,14.40
2023-03-22T09:00:21.719Z,13.81
2023-03-22T09:02:50.539Z,14.35
2023-03-22T09:05:18.847Z,14.41
2023-03-22T09:07:53.693Z,14.56
2023-03-22T09:10:23.693Z,13.40
2023-03-22T09:12:53.103Z,14.06
2023-03-22T09:15:21.507Z,13.43
2023-03-22T09:17:50.569Z,13.94
2023-03-22T09:20:20.986Z,13.80
2023-03-22T09:22:49.324Z,14.55
2023-03-22T09:25:19.036Z,14.59
2023-03-22T09:27:49.910Z,14.05
2023-03-22T09:30:19.988Z,14.37
2023-03-22T09:32:51.539Z,14.43
2023-03-22T09:35:26.381Z,14.02
2023-03-22T09:38:00.803Z,13.88
2023-03-22T09:40:34.940Z,13.75
2023-03-22T09:43:11.151Z,14.09
2023-03-22T09:45:48.480Z,13.94
2023-03-22T09:48:20.258Z,14.02
2023-03-22T09:50:53.230Z,13.68
2023-03-22T09:53:23.734Z,13.61
2023-03-22T09:56:12.111Z,14.08
2023-03-22T09:59:07.557Z,13.82
2023-03-22T10:02:01.362Z,13.86
2023-03-22T10:04:50.205Z,13.89
2023-03-22T10:07:55.136Z,14.34
2023-03-22T10:10:24.788Z,14.13
2023-03-22T10:13:08.114Z,14.14
2023-03-22T10:15:41.409Z,14.56
2023-03-22T10:18:16.654Z,14.18
2023-03-22T10:20:59.100Z,14.66
2023-03-22T10:23:39.475Z,14.83
2023-03-22T10:26:09.565Z,15.16
2023-03-22T10:28:42.469Z,15.14
2023-03-22T10:31:17.818Z,14.56
2023-03-22T10:33:51.481Z,13.42
2023-03-22T10:36:25.123Z,13.18
2023-03-22T10:38:57.167Z,13.41
2023-03-22T10:41:26.404Z,13.50
2023-03-22T10:43:59.365Z,13.74
2023-03-22T10:46:34.180Z,13.37
2023-03-22T10:49:02.879Z,13.37
2023-03-22T10:51:46.157Z,13.39
2023-03-22T10:54:16.590Z,13.37
2023-03-22T10:56:46.234Z,13.32
2023-03-22T10:59:51.144Z,14.03
2023-03-22T11:02:30.255Z,13.61
2023-03-22T11:05:09.658Z,13.36
2023-03-22T11:07:48.015Z,13.80
2023-03-22T11:10:33.166Z,13.91
2023-03-22T11:13:13.822Z,14.05
2023-03-22T11:15:52.165Z,14.48
2023-03-22T11:18:27.070Z,14.86
2023-03-22T11:21:01.389Z,15.12
2023-03-22T11:23:34.145Z,15.49
2023-03-22T11:26:11.922Z,15.95
2023-03-22T11:28:52.186Z,16.16
2023-03-22T11:31:21.496Z,16.22
2023-03-22T11:34:00.227Z,16.40
2023-03-22T11:36:29.424Z,16.68
2023-03-22T11:38:59.859Z,17.18
2023-03-22T11:41:38.260Z,17.38
2023-03-22T11:44:10.759Z,16.95
2023-03-22T11:46:41.134Z,16.82
2023-03-22T11:49:14.906Z,17.76
2023-03-22T11:51:43.294Z,17.90
2023-03-22T11:54:25.871Z,18.14
2023-03-22T11:56:58.254Z,19.13
2023-03-22T11:59:30.585Z,19.06
2023-03-22T12:02:15.570Z,19.08
2023-03-22T12:05:02.651Z,17.28
2023-03-22T12:07:34.222Z,18.32
2023-03-22T12:10:06.792Z,18.25
2023-03-22T12:12:46.248Z,17.79
2023-03-22T12:15:23.149Z,17.14
2023-03-22T12:17:57.945Z,16.93
2023-03-22T12:20:43.607Z,17.60
2023-03-22T12:23:22.296Z,17.55
2023-03-22T12:26:13.482Z,18.05
2023-03-22T12:28:58.237Z,17.33
2023-03-22T12:31:36.479Z,16.94
2023-03-22T12:34:17.457Z,17.21
2023-03-22T12:36:51.231Z,16.34
2023-03-22T12:39:32.306Z,16.66
2023-03-22T12:42:04.584Z,17.94
2023-03-22T12:44:52.792Z,18.67
2023-03-22T12:47:46.242Z,18.94
2023-03-22T12:50:25.212Z,19.20
2023-03-22T12:53:01.563Z,19.33
2023-03-22T12:55:40.315Z,19.34
2023-03-22T12:58:11.226Z,19.94
2023-03-22T13:00:58.292Z,20.67
2023-03-22T13:03:49.453Z,20.09
2023-03-22T13:06:37.536Z,19.79
2023-03-22T13:09:36.813Z,19.70
2023-03-22T13:12:22.769Z,19.96
2023-03-22T13:14:53.378Z,20.20
2023-03-22T13:17:25.903Z,20.51
2023-03-22T13:20:25.910Z,19.51
2023-03-22T13:22:57.523Z,19.83
2023-03-22T13:25:27.986Z,19.78
2023-03-22T13:27:59.235Z,19.44
2023-03-22T13:30:35.108Z,19.72
2023-03-22T13:33:11.839Z,20.19
2023-03-22T13:35:54.589Z,18.85
2023-03-22T13:38:32.087Z,19.22
2023-03-22T13:41:14.299Z,18.69
2023-03-22T13:43:52.722Z,18.40
2023-03-22T13:46:24.319Z,17.88
2023-03-22T13:49:03.401Z,17.89
2023-03-22T13:51:37.216Z,18.50
2023-03-22T13:54:24.599Z,18.47
2023-03-22T13:56:59.308Z,17.95
2023-03-22T13:59:29.551Z,18.20
2023-03-22T14:02:18.856Z,18.28
2023-03-22T14:04:58.321Z,17.61
2023-03-22T14:07:42.272Z,18.28
2023-03-22T14:10:37.517Z,18.48
2023-03-22T14:13:21.317Z,18.56
2023-03-22T14:16:28.424Z,18.12
2023-03-22T14:18:56.942Z,18.58
2023-03-22T14:21:34.433Z,18.38
